Time;durP1;ratioP1;P1;durP2;ratioP2;P2;SDS_P1;SDS_P2;PMS_P1;PMS_P2;Temp;Humidity;BMP_temperature;BMP_pressure;BME280_temperature;BME280_humidity;BME280_pressure;Samples;Min_cycle;Max_cycle;Signal;HPM_P1;HPM_P2
2021/12/09 00:01:42;;;;;;;4.20;2.97;;;2.10;99.90;;;;;;5089120;28;20293;-80
2021/12/09 00:04:12;;;;;;;5.03;3.00;;;2.10;99.90;;;;;;5089454;28;20251;-80
2021/12/09 00:06:40;;;;;;;4.53;3.37;;;2.20;99.90;;;;;;5090149;28;20197;-80
2021/12/09 00:09:09;;;;;;;5.17;2.67;;;2.10;99.90;;;;;;5091829;28;20213;-80
2021/12/09 00:11:43;;;;;;;5.00;3.00;;;2.10;99.90;;;;;;5091872;28;20205;-80
2021/12/09 00:14:13;;;;;;;5.73;3.23;;;2.20;99.90;;;;;;5091340;28;20204;-80
2021/12/09 00:16:40;;;;;;;6.50;3.00;;;2.30;99.90;;;;;;5091249;28;20189;-80
2021/12/09 00:19:07;;;;;;;7.07;3.57;;;2.30;99.90;;;;;;5090992;28;20205;-80
2021/12/09 00:21:35;;;;;;;7.47;3.50;;;2.20;99.90;;;;;;5090414;28;20232;-80
2021/12/09 00:24:02;;;;;;;9.97;3.93;;;2.10;99.90;;;;;;5089135;28;20263;-79
2021/12/09 00:26:29;;;;;;;7.23;3.43;;;2.10;99.90;;;;;;5088537;28;20197;-79
2021/12/09 00:28:57;;;;;;;5.10;2.80;;;2.00;99.90;;;;;;5087985;28;20205;-79
2021/12/09 00:31:25;;;;;;;9.63;3.40;;;2.10;99.90;;;;;;5089070;28;20197;-80
2021/12/09 00:33:55;;;;;;;4.63;3.37;;;2.20;99.90;;;;;;5089219;28;20228;-80
2021/12/09 00:36:30;;;;;;;6.57;3.20;;;2.20;99.90;;;;;;5090094;28;20204;-80
2021/12/09 00:38:58;;;;;;;4.93;2.97;;;2.30;99.90;;;;;;5089839;28;20208;-80
2021/12/09 00:41:25;;;;;;;6.83;2.50;;;2.30;99.90;;;;;;5088577;28;20217;-80
2021/12/09 00:43:53;;;;;;;4.53;2.83;;;2.30;99.90;;;;;;5087730;28;20236;-79
2021/12/09 00:46:21;;;;;;;5.60;1.97;;;2.30;99.90;;;;;;5089022;28;20221;-80
2021/12/09 00:48:48;;;;;;;2.77;1.67;;;2.40;99.90;;;;;;5088075;28;20216;-80
2021/12/09 00:51:15;;;;;;;3.50;2.33;;;2.30;99.90;;;;;;5088378;28;20221;-79
2021/12/09 00:53:42;;;;;;;2.57;2.00;;;2.20;99.90;;;;;;5087621;28;20233;-79
2021/12/09 00:56:10;;;;;;;3.07;2.10;;;2.20;99.90;;;;;;5088842;28;20232;-80
2021/12/09 00:58:38;;;;;;;2.00;1.57;;;2.20;99.90;;;;;;5087322;28;20758;-80
2021/12/09 01:01:05;;;;;;;2.67;1.80;;;2.20;99.90;;;;;;5089554;28;20235;-80
2021/12/09 01:03:37;;;;;;;2.80;1.50;;;2.30;99.90;;;;;;5088518;28;20240;-79
2021/12/09 01:06:04;;;;;;;2.87;1.77;;;2.40;99.90;;;;;;5088638;28;20213;-80
2021/12/09 01:08:32;;;;;;;2.47;1.40;;;2.40;99.90;;;;;;5087890;28;20193;-81
2021/12/09 01:11:00;;;;;;;2.20;1.90;;;2.40;99.90;;;;;;5088305;28;20205;-79
2021/12/09 01:13:28;;;;;;;0.83;0.80;;;2.40;99.90;;;;;;5086799;28;20235;-79
2021/12/09 01:15:55;;;;;;;1.43;1.20;;;2.40;99.90;;;;;;5088444;28;20633;-80
2021/12/09 01:18:21;;;;;;;2.70;1.60;;;2.40;99.90;;;;;;5087332;28;20212;-79
2021/12/09 01:20:50;;;;;;;1.27;1.17;;;2.50;99.90;;;;;;5087165;28;20243;-80
2021/12/09 01:23:17;;;;;;;1.93;1.40;;;2.50;99.90;;;;;;5087678;28;20201;-80
2021/12/09 01:25:44;;;;;;;0.70;0.70;;;2.50;99.90;;;;;;5087470;28;20228;-79
2021/12/09 01:28:20;;;;;;;2.80;1.17;;;2.50;99.90;;;;;;5087252;28;20216;-79
2021/12/09 01:30:50;;;;;;;1.77;1.17;;;2.50;99.90;;;;;;5086781;28;20224;-80
2021/12/09 01:33:17;;;;;;;2.07;1.30;;;2.40;99.90;;;;;;5087149;28;20284;-79
2021/12/09 01:35:47;;;;;;;2.07;1.50;;;2.40;99.90;;;;;;5086763;28;20213;-79
2021/12/09 01:38:17;;;;;;;2.43;1.50;;;3.00;99.90;;;;;;5087093;28;20216;-79
2021/12/09 01:40:44;;;;;;;3.77;2.20;;;2.40;99.90;;;;;;5086942;28;20212;-79
2021/12/09 01:43:12;;;;;;;2.17;1.10;;;2.40;99.90;;;;;;5087815;28;20198;-79
2021/12/09 01:45:39;;;;;;;3.53;1.83;;;2.50;99.90;;;;;;5088005;28;20197;-80
2021/12/09 01:48:06;;;;;;;1.70;1.57;;;2.50;99.90;;;;;;5087692;28;20288;-79
2021/12/09 01:50:34;;;;;;;2.77;1.70;;;2.50;99.90;;;;;;5087256;28;20233;-80
2021/12/09 01:53:01;;;;;;;3.30;1.87;;;2.50;99.90;;;;;;5087120;28;20221;-79
2021/12/09 01:55:31;;;;;;;2.47;1.73;;;2.50;99.90;;;;;;5086044;28;20210;-79
2021/12/09 01:57:58;;;;;;;5.20;2.20;;;2.50;99.90;;;;;;5087245;28;20216;-80
2021/12/09 02:00:28;;;;;;;2.17;1.60;;;2.60;99.90;;;;;;5086354;28;20198;-79
2021/12/09 02:02:56;;;;;;;1.60;1.33;;;2.70;99.90;;;;;;5086129;28;20212;-79
2021/12/09 02:05:23;;;;;;;4.43;1.70;;;2.70;99.90;;;;;;5086259;28;20308;-79
2021/12/09 02:07:50;;;;;;;1.70;1.30;;;2.70;99.90;;;;;;5085718;28;20216;-79
2021/12/09 02:10:20;;;;;;;2.50;1.70;;;2.70;99.90;;;;;;5085721;28;20209;-79
2021/12/09 02:12:50;;;;;;;2.53;1.77;;;2.70;99.90;;;;;;5089133;28;20281;-79
2021/12/09 02:15:20;;;;;;;2.70;1.83;;;2.60;99.90;;;;;;5089778;28;20228;-79
2021/12/09 02:17:47;;;;;;;1.77;1.60;;;2.70;99.90;;;;;;5089315;28;20217;-79
2021/12/09 02:20:15;;;;;;;2.03;1.50;;;2.60;99.90;;;;;;5090179;28;20190;-79
2021/12/09 02:22:46;;;;;;;2.77;1.90;;;2.50;99.90;;;;;;5090484;28;20208;-80
2021/12/09 02:25:14;;;;;;;2.53;1.63;;;2.50;99.90;;;;;;5089577;28;20217;-79
2021/12/09 02:27:42;;;;;;;2.87;2.00;;;2.50;99.90;;;;;;5088920;28;20236;-80
2021/12/09 02:30:10;;;;;;;2.80;1.93;;;2.60;99.90;;;;;;5089411;28;20208;-79
2021/12/09 02:32:37;;;;;;;3.20;1.73;;;2.60;99.90;;;;;;5090264;28;20229;-80
2021/12/09 02:35:04;;;;;;;6.73;2.83;;;2.70;99.90;;;;;;5090104;28;20229;-80
2021/12/09 02:37:31;;;;;;;3.20;2.10;;;2.70;99.90;;;;;;5089389;28;20220;-80
2021/12/09 02:40:00;;;;;;;2.73;2.03;;;2.70;99.90;;;;;;5089533;28;20243;-79
2021/12/09 02:42:27;;;;;;;2.83;1.93;;;2.70;99.90;;;;;;5089103;28;20254;-79
2021/12/09 02:44:55;;;;;;;2.60;1.77;;;2.70;99.90;;;;;;5089119;28;20252;-79
2021/12/09 02:47:22;;;;;;;1.77;1.60;;;2.60;99.90;;;;;;5089563;28;20209;-79
2021/12/09 02:49:51;;;;;;;5.90;2.10;;;2.80;99.90;;;;;;5088359;28;20672;-79
2021/12/09 02:52:20;;;;;;;2.00;1.53;;;2.80;99.90;;;;;;5071558;28;20304;-79
2021/12/09 02:54:47;;;;;;;1.97;1.40;;;2.80;99.90;;;;;;5071656;28;20196;-79
2021/12/09 02:57:15;;;;;;;2.93;1.97;;;2.80;99.90;;;;;;5078213;28;20201;-79
2021/12/09 02:59:42;;;;;;;4.50;1.97;;;2.80;99.90;;;;;;5089198;28;20233;-79
2021/12/09 03:02:11;;;;;;;4.03;2.63;;;2.90;99.90;;;;;;5090111;28;20269;-79
2021/12/09 03:04:42;;;;;;;4.53;1.80;;;2.90;99.90;;;;;;5089287;28;20221;-80
2021/12/09 03:07:13;;;;;;;4.70;2.00;;;2.90;99.90;;;;;;5088855;28;20212;-79
2021/12/09 03:09:48;;;;;;;3.43;2.43;;;2.90;99.90;;;;;;5089753;28;20243;-79
2021/12/09 03:12:19;;;;;;;2.33;1.60;;;2.90;99.90;;;;;;5088539;28;20215;-79
2021/12/09 03:14:46;;;;;;;2.67;1.70;;;2.80;99.90;;;;;;5089232;28;20216;-79
2021/12/09 03:17:13;;;;;;;2.77;2.10;;;2.90;99.90;;;;;;5088411;28;20235;-79
2021/12/09 03:19:40;;;;;;;3.33;2.10;;;2.90;99.90;;;;;;5088721;28;20233;-79
2021/12/09 03:22:07;;;;;;;2.53;1.80;;;2.80;99.90;;;;;;5089091;28;20225;-79
2021/12/09 03:24:34;;;;;;;2.20;1.90;;;2.70;99.90;;;;;;5088511;28;20248;-79
2021/12/09 03:27:01;;;;;;;2.47;1.97;;;6.20;99.90;;;;;;5088206;28;20288;-79
2021/12/09 03:29:30;;;;;;;4.40;2.80;;;2.70;99.90;;;;;;5088916;28;20277;-79
2021/12/09 03:31:59;;;;;;;5.93;2.40;;;2.80;99.90;;;;;;5088700;28;20280;-79
2021/12/09 03:34:29;;;;;;;2.43;2.23;;;2.80;99.90;;;;;;5089202;28;20283;-80
2021/12/09 03:36:58;;;;;;;2.90;1.93;;;2.80;99.90;;;;;;5088485;28;20227;-79
2021/12/09 03:39:29;;;;;;;2.83;1.90;;;2.80;99.90;;;;;;5088627;28;20205;-79
2021/12/09 03:41:57;;;;;;;2.47;1.90;;;2.80;99.90;;;;;;5088072;28;20236;-79
2021/12/09 03:44:24;;;;;;;4.70;2.60;;;2.90;99.90;;;;;;5088526;28;20812;-79
2021/12/09 03:46:54;;;;;;;3.53;2.20;;;2.80;99.90;;;;;;5089033;28;20235;-80
2021/12/09 03:49:23;;;;;;;3.97;2.53;;;2.80;99.90;;;;;;5089029;28;20205;-79
2021/12/09 03:51:51;;;;;;;3.33;2.37;;;2.90;99.90;;;;;;5088498;28;20225;-79
2021/12/09 03:54:18;;;;;;;3.67;2.50;;;2.90;99.90;;;;;;5071290;28;20258;-79
2021/12/09 03:56:46;;;;;;;3.40;2.20;;;2.90;99.90;;;;;;5068085;28;20198;-79
2021/12/09 03:59:14;;;;;;;2.53;2.13;;;2.90;99.90;;;;;;5069527;28;20269;-80
2021/12/09 04:01:42;;;;;;;3.60;2.07;;;2.80;99.90;;;;;;5070737;28;20255;-79
2021/12/09 04:04:12;;;;;;;3.03;1.97;;;2.80;99.90;;;;;;5069450;28;20198;-80
2021/12/09 04:06:39;;;;;;;1.90;1.70;;;2.80;99.90;;;;;;5068690;28;20240;-79
2021/12/09 04:09:09;;;;;;;3.90;2.03;;;2.80;99.90;;;;;;5067864;28;20209;-79
2021/12/09 04:11:36;;;;;;;3.27;1.80;;;2.80;99.90;;;;;;5067567;28;20240;-79
2021/12/09 04:14:04;;;;;;;5.10;2.40;;;2.90;99.90;;;;;;5068226;28;20289;-79
2021/12/09 04:16:31;;;;;;;2.97;1.80;;;2.80;99.90;;;;;;5068114;28;20261;-79
2021/12/09 04:18:58;;;;;;;2.20;1.47;;;2.80;99.90;;;;;;5069250;28;20284;-79
2021/12/09 04:21:27;;;;;;;2.60;1.40;;;2.80;99.90;;;;;;5067964;28;20316;-79
2021/12/09 04:23:54;;;;;;;1.80;1.40;;;2.80;99.90;;;;;;5068443;28;20229;-79
2021/12/09 04:26:21;;;;;;;2.40;1.57;;;2.80;99.90;;;;;;5066952;28;20281;-79
2021/12/09 04:28:48;;;;;;;1.97;1.53;;;3.00;99.90;;;;;;5067529;28;20210;-79
2021/12/09 04:31:16;;;;;;;4.00;1.60;;;3.00;99.90;;;;;;5068175;28;20225;-79
2021/12/09 04:33:43;;;;;;;2.30;1.80;;;3.00;99.90;;;;;;5067694;28;20628;-79
2021/12/09 04:36:11;;;;;;;1.87;1.70;;;3.00;99.90;;;;;;5067819;28;20728;-79
2021/12/09 04:38:39;;;;;;;4.57;2.93;;;2.90;99.90;;;;;;5067507;28;20210;-79
2021/12/09 04:41:06;;;;;;;6.07;2.20;;;2.90;99.90;;;;;;5067928;28;20217;-79
2021/12/09 04:43:35;;;;;;;4.73;2.00;;;2.80;99.90;;;;;;5065547;28;20229;-78
2021/12/09 04:46:02;;;;;;;3.20;1.97;;;2.80;99.90;;;;;;5065067;28;20782;-77
2021/12/09 04:48:29;;;;;;;1.73;1.43;;;2.80;99.90;;;;;;5064926;28;20269;-78
2021/12/09 04:50:56;;;;;;;3.83;1.83;;;2.70;99.90;;;;;;5064938;28;20274;-77
2021/12/09 04:53:24;;;;;;;3.60;1.67;;;2.70;99.90;;;;;;5064729;28;20237;-77
2021/12/09 04:55:53;;;;;;;1.63;1.47;;;2.70;99.90;;;;;;5067980;28;20225;-78
2021/12/09 04:58:20;;;;;;;6.33;1.60;;;2.70;99.90;;;;;;5065529;28;20271;-78
2021/12/09 05:00:48;;;;;;;3.63;1.80;;;2.70;99.90;;;;;;5065057;28;20204;-78
2021/12/09 05:03:15;;;;;;;1.53;1.40;;;2.80;99.90;;;;;;5064791;28;20201;-78
2021/12/09 05:05:46;;;;;;;4.27;1.97;;;2.90;99.90;;;;;;5064791;28;20222;-77
2021/12/09 05:08:16;;;;;;;2.30;1.90;;;2.90;99.90;;;;;;5064682;28;20240;-77
2021/12/09 05:10:55;;;;;;;3.90;1.63;;;2.90;99.90;;;;;;5064688;28;20285;-78
2021/12/09 05:13:25;;;;;;;4.27;2.00;;;2.90;99.90;;;;;;5063797;28;20220;-78
2021/12/09 05:15:52;;;;;;;3.73;2.13;;;2.90;99.90;;;;;;5065088;28;20209;-78
2021/12/09 05:18:20;;;;;;;3.37;2.50;;;2.80;99.90;;;;;;5064192;28;20202;-78
2021/12/09 05:20:48;;;;;;;4.53;2.70;;;2.80;99.90;;;;;;5064895;28;20288;-78
2021/12/09 05:23:16;;;;;;;3.33;2.43;;;2.80;99.90;;;;;;5064485;28;20292;-78
2021/12/09 05:25:44;;;;;;;4.63;2.43;;;2.80;99.90;;;;;;5064189;28;20251;-78
2021/12/09 05:28:15;;;;;;;4.97;2.83;;;2.80;99.90;;;;;;5065811;28;20207;-78
2021/12/09 05:33:24;;;;;;;5.30;2.57;;;2.90;99.90;;;;;;5075516;28;20200;-78
2021/12/09 05:35:52;;;;;;;4.47;2.57;;;2.90;99.90;;;;;;5075129;28;20644;-78
2021/12/09 05:38:19;;;;;;;3.13;2.13;;;2.70;99.90;;;;;;5075682;28;20201;-78
2021/12/09 05:40:45;;;;;;;4.60;2.43;;;2.60;99.90;;;;;;5074951;28;20231;-78
2021/12/09 05:43:13;;;;;;;1.80;1.63;;;2.40;99.90;;;;;;5076617;28;20200;-77
2021/12/09 05:45:41;;;;;;;3.73;1.77;;;2.30;99.90;;;;;;5078058;28;20239;-78
2021/12/09 05:48:10;;;;;;;5.47;1.93;;;2.00;99.90;;;;;;5083781;28;20224;-78
2021/12/09 05:50:37;;;;;;;2.27;0.90;;;2.00;99.90;;;;;;5091934;28;20266;-78
2021/12/09 05:53:04;;;;;;;1.53;1.00;;;1.80;99.90;;;;;;5082669;28;20222;-79
2021/12/09 05:55:31;;;;;;;1.13;0.93;;;1.70;99.90;;;;;;5070993;28;20225;-78
2021/12/09 05:57:58;;;;;;;2.03;1.00;;;1.50;99.90;;;;;;5071657;28;20264;-79
2021/12/09 06:00:25;;;;;;;1.77;1.10;;;1.70;99.90;;;;;;5071120;28;20241;-79
2021/12/09 06:02:52;;;;;;;2.00;1.30;;;1.70;99.90;;;;;;5069222;28;20205;-78
2021/12/09 06:05:21;;;;;;;2.37;1.50;;;1.70;99.90;;;;;;5069322;28;20285;-78
2021/12/09 06:07:49;;;;;;;2.40;1.30;;;1.80;99.90;;;;;;5068687;28;20215;-78
2021/12/09 06:10:16;;;;;;;2.07;1.70;;;1.80;99.90;;;;;;5068647;28;20323;-78
2021/12/09 06:12:43;;;;;;;4.10;2.13;;;1.80;99.90;;;;;;5068745;28;20233;-79
2021/12/09 06:15:10;;;;;;;2.93;1.27;;;1.70;99.90;;;;;;5070631;28;20197;-79
2021/12/09 06:17:37;;;;;;;2.53;1.70;;;1.70;99.90;;;;;;5069438;28;20289;-79
2021/12/09 06:20:05;;;;;;;5.30;1.57;;;1.70;99.90;;;;;;5068135;28;20212;-78
2021/12/09 06:22:34;;;;;;;4.00;1.30;;;1.60;99.90;;;;;;5069059;28;20265;-78
2021/12/09 06:25:01;;;;;;;2.73;1.70;;;1.60;99.90;;;;;;5069291;28;20284;-78
2021/12/09 06:27:28;;;;;;;2.60;1.33;;;1.60;99.90;;;;;;5067313;28;20565;-77
2021/12/09 06:29:55;;;;;;;1.80;1.50;;;1.60;99.90;;;;;;5067456;28;20240;-77
2021/12/09 06:32:21;;;;;;;1.87;1.53;;;1.60;99.90;;;;;;5067473;28;20214;-77
2021/12/09 06:34:48;;;;;;;2.50;1.37;;;1.50;99.90;;;;;;5067410;28;20632;-77
2021/12/09 06:37:15;;;;;;;1.73;1.00;;;1.40;99.90;;;;;;5067328;28;20248;-77
2021/12/09 06:39:43;;;;;;;6.47;2.37;;;1.40;99.90;;;;;;5066948;28;20245;-77
2021/12/09 06:42:10;;;;;;;7.37;4.20;;;1.50;99.90;;;;;;5066598;28;20566;-77
2021/12/09 06:44:37;;;;;;;5.30;2.90;;;1.50;99.90;;;;;;5067398;28;20621;-77
2021/12/09 06:47:05;;;;;;;3.60;2.50;;;1.40;99.90;;;;;;5067080;28;20228;-77
2021/12/09 06:49:32;;;;;;;4.63;2.70;;;1.40;99.90;;;;;;5066721;28;20226;-77
2021/12/09 06:51:59;;;;;;;5.00;2.83;;;1.40;99.90;;;;;;5067014;28;20293;-77
2021/12/09 06:54:26;;;;;;;4.90;3.03;;;1.40;99.90;;;;;;5066420;28;20253;-77
2021/12/09 06:56:54;;;;;;;4.37;2.80;;;1.40;99.90;;;;;;5065842;28;20266;-77
2021/12/09 06:59:21;;;;;;;4.10;2.70;;;1.60;99.90;;;;;;5066236;28;20209;-77
2021/12/09 07:01:48;;;;;;;5.63;2.70;;;1.40;99.90;;;;;;5066809;28;20201;-77
2021/12/09 07:04:15;;;;;;;2.27;1.97;;;1.30;99.90;;;;;;5066722;28;20228;-77
2021/12/09 07:06:42;;;;;;;2.27;1.80;;;1.40;99.90;;;;;;5074692;28;20277;-77
2021/12/09 07:09:09;;;;;;;2.87;1.83;;;1.30;99.90;;;;;;5085142;28;20642;-77
2021/12/09 07:11:36;;;;;;;2.77;2.40;;;1.10;99.90;;;;;;5085066;28;20231;-77
2021/12/09 07:14:05;;;;;;;3.57;2.53;;;1.00;99.90;;;;;;5085099;28;20251;-77
2021/12/09 07:16:32;;;;;;;5.10;3.83;;;0.90;99.90;;;;;;5085379;28;20250;-77
2021/12/09 07:19:00;;;;;;;3.63;2.80;;;0.90;99.90;;;;;;5085090;28;20201;-77
2021/12/09 07:21:27;;;;;;;3.87;2.90;;;1.00;99.90;;;;;;5082017;28;20761;-77
2021/12/09 07:23:57;;;;;;;2.93;2.67;;;1.00;99.90;;;;;;5084644;28;20201;-77
2021/12/09 07:26:24;;;;;;;5.00;3.17;;;1.00;99.90;;;;;;5075250;28;20221;-76
2021/12/09 07:28:50;;;;;;;2.23;1.47;;;1.20;99.90;;;;;;5065807;28;20234;-77
2021/12/09 07:31:19;;;;;;;2.93;2.60;;;1.20;99.90;;;;;;5066006;28;20201;-77
2021/12/09 07:33:46;;;;;;;3.13;1.63;;;1.20;99.90;;;;;;5065062;28;20209;-77
2021/12/09 07:36:12;;;;;;;4.30;2.30;;;1.20;99.90;;;;;;5065422;28;20202;-77
2021/12/09 07:38:41;;;;;;;2.30;1.70;;;1.20;99.90;;;;;;5065442;28;20244;-78
2021/12/09 07:41:08;;;;;;;1.87;1.50;;;1.20;99.90;;;;;;5065038;28;20241;-77
2021/12/09 07:43:35;;;;;;;3.43;2.17;;;1.20;99.90;;;;;;5064976;28;20228;-77
2021/12/09 07:46:02;;;;;;;4.00;2.23;;;1.20;99.90;;;;;;5066873;28;20240;-78
2021/12/09 07:48:30;;;;;;;2.17;1.97;;;1.30;99.90;;;;;;5065600;28;20205;-78
2021/12/09 07:50:57;;;;;;;1.60;1.43;;;1.40;99.90;;;;;;5067055;28;20244;-78
2021/12/09 07:53:24;;;;;;;1.70;1.20;;;1.50;99.90;;;;;;5085224;28;20784;-78
2021/12/09 07:55:52;;;;;;;1.70;1.33;;;1.50;99.90;;;;;;5085996;28;20201;-78
2021/12/09 07:58:21;;;;;;;3.07;1.40;;;1.40;99.90;;;;;;5084770;28;20571;-78
2021/12/09 08:00:49;;;;;;;3.13;1.90;;;1.30;99.90;;;;;;5085797;28;20295;-78
2021/12/09 08:03:17;;;;;;;3.33;2.17;;;1.30;99.90;;;;;;5085468;28;20209;-78
2021/12/09 08:05:48;;;;;;;3.10;1.80;;;1.40;99.90;;;;;;5085654;28;20648;-78
2021/12/09 08:08:15;;;;;;;2.23;1.80;;;1.30;99.90;;;;;;5084667;28;20231;-78
2021/12/09 08:10:42;;;;;;;2.40;1.87;;;1.30;99.90;;;;;;5085391;28;20687;-78
2021/12/09 08:13:12;;;;;;;1.97;1.37;;;1.60;99.90;;;;;;5084423;28;20232;-78
2021/12/09 08:15:45;;;;;;;3.03;1.50;;;1.30;99.90;;;;;;5085965;28;20201;-78
2021/12/09 08:18:27;;;;;;;2.20;1.43;;;1.30;99.90;;;;;;5085121;28;20212;-78
2021/12/09 08:20:57;;;;;;;2.10;1.27;;;1.30;99.90;;;;;;5085600;28;20208;-78
2021/12/09 08:23:24;;;;;;;3.50;1.47;;;1.50;99.90;;;;;;5084571;28;20205;-78
2021/12/09 08:25:52;;;;;;;2.37;1.20;;;1.50;99.90;;;;;;5085470;28;20231;-78
2021/12/09 08:28:20;;;;;;;1.20;1.10;;;1.50;99.90;;;;;;5084333;28;20273;-78
2021/12/09 08:30:50;;;;;;;2.00;1.70;;;1.50;99.90;;;;;;5085308;28;20239;-78
2021/12/09 08:33:18;;;;;;;3.40;1.97;;;1.50;99.90;;;;;;5085046;28;20562;-78
2021/12/09 08:35:46;;;;;;;3.87;2.27;;;1.40;99.90;;;;;;5085635;28;20197;-77
2021/12/09 08:38:14;;;;;;;3.87;2.27;;;1.30;99.90;;;;;;5084908;28;20281;-77
2021/12/09 08:40:43;;;;;;;2.13;1.80;;;1.40;99.90;;;;;;5085028;28;20616;-77
2021/12/09 08:43:10;;;;;;;2.13;1.60;;;1.40;99.90;;;;;;5083967;28;20206;-78
2021/12/09 08:45:37;;;;;;;3.00;1.60;;;1.30;99.90;;;;;;5085489;28;20264;-77
2021/12/09 08:48:04;;;;;;;7.33;1.70;;;1.30;99.90;;;;;;5084751;28;20240;-78
2021/12/09 08:50:34;;;;;;;3.53;2.37;;;1.30;99.90;;;;;;5085175;28;20314;-78
2021/12/09 08:53:03;;;;;;;3.27;2.50;;;1.40;99.90;;;;;;5084855;28;20229;-78
2021/12/09 08:55:32;;;;;;;4.57;3.47;;;1.50;99.90;;;;;;5084629;28;20197;-78
2021/12/09 08:58:00;;;;;;;5.77;3.50;;;1.60;99.90;;;;;;5083792;28;20243;-78
2021/12/09 09:00:28;;;;;;;5.67;3.57;;;1.70;99.90;;;;;;5085012;28;20201;-78
2021/12/09 09:02:55;;;;;;;5.30;2.80;;;1.70;99.90;;;;;;5084754;28;20224;-78
2021/12/09 09:05:22;;;;;;;5.23;2.90;;;1.70;99.90;;;;;;5085032;28;20280;-78
2021/12/09 09:07:51;;;;;;;1.77;1.63;;;1.80;99.90;;;;;;5084667;28;20256;-78
2021/12/09 09:10:21;;;;;;;5.77;2.70;;;1.80;99.90;;;;;;5084641;28;20247;-78
2021/12/09 09:12:50;;;;;;;9.90;4.83;;;2.00;99.90;;;;;;5083956;28;20213;-78
2021/12/09 09:15:20;;;;;;;7.87;4.00;;;2.00;99.90;;;;;;5084805;28;20201;-78
2021/12/09 09:17:47;;;;;;;8.23;3.50;;;1.90;99.90;;;;;;5084779;28;20216;-79
2021/12/09 09:20:21;;;;;;;5.97;4.10;;;2.00;99.90;;;;;;5086129;28;20513;-78
2021/12/09 09:22:48;;;;;;;6.83;4.07;;;2.00;99.90;;;;;;5089076;28;20201;-78
2021/12/09 09:25:20;;;;;;;6.87;4.13;;;2.00;99.90;;;;;;5088215;28;20228;-78
2021/12/09 09:27:50;;;;;;;4.97;3.07;;;2.10;99.90;;;;;;5087613;28;20288;-78
2021/12/09 09:30:19;;;;;;;2.30;1.83;;;2.10;99.90;;;;;;5088814;28;20236;-78
2021/12/09 09:32:47;;;;;;;3.17;1.80;;;2.10;99.90;;;;;;5088748;28;20205;-78
2021/12/09 09:35:15;;;;;;;2.57;1.60;;;2.10;99.90;;;;;;5088638;28;20209;-78
2021/12/09 09:37:43;;;;;;;1.90;1.70;;;2.10;99.90;;;;;;5088291;28;20219;-78
2021/12/09 09:40:13;;;;;;;3.30;1.63;;;2.20;99.90;;;;;;5087981;28;20209;-78
2021/12/09 09:43:00;;;;;;;3.60;2.00;;;2.20;99.90;;;;;;5087296;28;20216;-78
2021/12/09 09:45:29;;;;;;;2.93;1.50;;;2.20;99.90;;;;;;5088828;28;20240;-78
2021/12/09 09:47:57;;;;;;;4.13;1.50;;;2.20;99.90;;;;;;5088039;28;20249;-79
2021/12/09 09:50:25;;;;;;;3.03;1.97;;;2.20;99.90;;;;;;5088260;28;20212;-79
2021/12/09 09:52:54;;;;;;;3.33;2.30;;;2.20;99.90;;;;;;5088033;28;20264;-79
2021/12/09 09:55:22;;;;;;;1.37;1.20;;;2.30;99.90;;;;;;5087633;28;20205;-79
2021/12/09 09:57:53;;;;;;;2.57;1.60;;;2.30;99.90;;;;;;5087400;28;20205;-78
2021/12/09 10:00:21;;;;;;;1.73;1.60;;;2.20;99.90;;;;;;5087934;28;20261;-78
2021/12/09 10:02:53;;;;;;;3.13;1.33;;;2.30;99.90;;;;;;5088008;28;20208;-77
2021/12/09 10:05:28;;;;;;;2.50;1.87;;;2.30;99.90;;;;;;5088121;28;20185;-77
2021/12/09 10:07:56;;;;;;;3.53;1.80;;;2.30;99.90;;;;;;5087748;28;20685;-78
2021/12/09 10:10:26;;;;;;;4.17;1.93;;;2.40;99.90;;;;;;5087751;28;20205;-77
2021/12/09 10:13:02;;;;;;;3.30;2.00;;;2.30;99.90;;;;;;5087040;28;20215;-78
2021/12/09 10:15:41;;;;;;;4.17;1.60;;;2.40;99.90;;;;;;5088268;28;20264;-78
2021/12/09 10:18:10;;;;;;;2.57;1.83;;;2.40;99.90;;;;;;5087487;28;20201;-78
2021/12/09 10:20:50;;;;;;;2.83;1.90;;;2.30;99.90;;;;;;5087776;28;20327;-78
2021/12/09 10:23:33;;;;;;;2.10;1.77;;;2.40;99.90;;;;;;5087721;28;20232;-78
2021/12/09 10:26:24;;;;;;;3.00;1.93;;;2.40;99.90;;;;;;5087452;28;20189;-78
2021/12/09 10:29:04;;;;;;;3.93;2.30;;;2.50;99.90;;;;;;5087113;28;20233;-77
2021/12/09 10:31:35;;;;;;;2.93;1.63;;;2.50;99.90;;;;;;5086581;28;20212;-78
2021/12/09 10:34:19;;;;;;;2.57;1.70;;;2.50;99.90;;;;;;5087917;28;20225;-78
2021/12/09 10:36:57;;;;;;;2.97;2.00;;;2.50;99.90;;;;;;5087672;28;20192;-77
2021/12/09 10:39:31;;;;;;;3.60;2.17;;;2.50;99.90;;;;;;5083897;28;20221;-78
2021/12/09 10:41:59;;;;;;;2.93;1.90;;;2.60;99.90;;;;;;5069456;28;20257;-77
2021/12/09 10:44:32;;;;;;;2.20;1.70;;;2.60;99.90;;;;;;5066923;28;20279;-77
2021/12/09 10:47:09;;;;;;;2.30;1.63;;;2.60;99.90;;;;;;5067313;28;20216;-77
2021/12/09 10:49:52;;;;;;;2.87;1.73;;;2.60;99.90;;;;;;5066955;28;20216;-78
2021/12/09 10:52:25;;;;;;;4.47;1.87;;;2.60;99.90;;;;;;5077646;28;20201;-78
2021/12/09 10:54:52;;;;;;;4.03;2.33;;;2.50;99.90;;;;;;5074152;28;20205;-78
2021/12/09 10:57:24;;;;;;;4.63;2.03;;;2.60;99.90;;;;;;5066135;28;20194;-78
2021/12/09 10:59:52;;;;;;;2.57;1.73;;;2.70;99.90;;;;;;5066960;28;20269;-78
2021/12/09 11:02:19;;;;;;;3.83;1.73;;;2.80;99.90;;;;;;5067147;28;20202;-78
2021/12/09 11:05:06;;;;;;;3.37;1.70;;;2.80;99.90;;;;;;5066904;28;20198;-78
2021/12/09 11:07:34;;;;;;;3.17;1.70;;;2.90;99.90;;;;;;5066619;28;20285;-78
2021/12/09 11:10:18;;;;;;;3.23;1.97;;;3.00;99.90;;;;;;5066590;28;20351;-78
2021/12/09 11:12:58;;;;;;;2.20;1.90;;;3.10;99.90;;;;;;5065673;28;20252;-78
2021/12/09 11:15:46;;;;;;;4.70;2.30;;;3.20;99.90;;;;;;5067093;28;20245;-78
2021/12/09 11:18:29;;;;;;;3.03;1.90;;;3.30;99.90;;;;;;5066462;28;20201;-78
2021/12/09 11:20:57;;;;;;;3.87;1.77;;;3.30;99.90;;;;;;5066365;28;20236;-78
2021/12/09 11:23:27;;;;;;;2.53;1.80;;;3.40;99.90;;;;;;5065956;28;20237;-78
2021/12/09 11:25:57;;;;;;;4.33;1.87;;;3.40;99.90;;;;;;5066537;28;20245;-78
2021/12/09 11:28:25;;;;;;;2.27;1.67;;;3.40;99.90;;;;;;5065524;28;20225;-77
2021/12/09 11:31:10;;;;;;;1.87;1.40;;;3.40;99.90;;;;;;5066181;28;20205;-77
2021/12/09 11:33:41;;;;;;;1.70;1.27;;;3.40;99.90;;;;;;5066422;28;20233;-78
2021/12/09 11:36:16;;;;;;;2.10;1.43;;;3.40;99.90;;;;;;5066679;28;20186;-78
2021/12/09 11:39:07;;;;;;;9.50;4.40;;;3.40;99.90;;;;;;5064628;28;20277;-78
2021/12/09 11:41:38;;;;;;;9.40;2.87;;;3.40;99.90;;;;;;5065142;28;20574;-78
2021/12/09 11:44:06;;;;;;;4.47;1.73;;;3.40;99.90;;;;;;5065519;28;20205;-78
2021/12/09 11:46:33;;;;;;;3.03;1.30;;;3.40;99.90;;;;;;5066076;28;20201;-78
2021/12/09 11:49:00;;;;;;;4.87;2.63;;;3.30;99.90;;;;;;5065862;28;20721;-77
2021/12/09 11:51:29;;;;;;;8.37;2.97;;;3.30;99.90;;;;;;5065759;28;20269;-78
2021/12/09 11:53:58;;;;;;;5.13;3.03;;;3.40;99.90;;;;;;5065574;28;20253;-78
2021/12/09 11:56:33;;;;;;;1.57;1.30;;;3.30;99.90;;;;;;5065636;28;20205;-78
2021/12/09 11:59:37;;;;;;;6.17;2.60;;;3.30;99.90;;;;;;5065535;28;20273;-78
2021/12/09 12:11:05;;;;;;;3.13;1.60;;;3.40;99.90;;;;;;5065714;28;20227;-77
2021/12/09 12:13:40;;;;;;;5.07;2.37;;;3.50;99.90;;;;;;5077761;28;20207;-77
2021/12/09 12:16:37;;;;;;;2.00;1.80;;;3.50;99.90;;;;;;5085598;28;20185;-78
2021/12/09 12:19:12;;;;;;;2.23;1.70;;;3.50;99.90;;;;;;5085305;28;20216;-79
2021/12/09 12:21:58;;;;;;;4.70;1.70;;;3.60;99.90;;;;;;5085978;28;20690;-78
2021/12/09 12:27:47;;;;;;;2.83;1.53;;;3.60;99.90;;;;;;5085936;28;20205;-79
2021/12/09 12:33:16;;;;;;;4.77;1.50;;;3.80;99.90;;;;;;5082308;28;20199;-79
2021/12/09 12:36:02;;;;;;;1.33;1.07;;;3.70;99.90;;;;;;5085738;28;20257;-79
2021/12/09 12:38:37;;;;;;;1.93;1.57;;;3.80;99.90;;;;;;5075518;28;20197;-79
2021/12/09 12:41:11;;;;;;;1.70;1.27;;;3.80;99.90;;;;;;5065050;28;20213;-79
2021/12/09 12:43:43;;;;;;;5.00;1.10;;;3.80;99.90;;;;;;5063947;28;20223;-79
2021/12/09 12:46:18;;;;;;;5.27;1.40;;;3.80;99.90;;;;;;5065668;28;20194;-79
2021/12/09 12:49:05;;;;;;;1.37;1.10;;;3.70;99.90;;;;;;5065140;28;20252;-79
2021/12/09 12:51:38;;;;;;;2.33;1.30;;;3.70;99.90;;;;;;5065101;28;20244;-78
2021/12/09 12:54:26;;;;;;;4.17;1.40;;;3.70;99.90;;;;;;5064598;28;20304;-78
2021/12/09 12:57:01;;;;;;;4.20;1.30;;;3.70;99.90;;;;;;5064921;28;20236;-78
2021/12/09 12:59:33;;;;;;;1.93;1.30;;;3.70;99.90;;;;;;5064715;28;20710;-79
2021/12/09 13:05:32;;;;;;;7.10;1.37;;;3.80;99.90;;;;;;5065161;28;20686;-78
2021/12/09 13:11:13;;;;;;;25.20;8.77;;;3.90;99.90;;;;;;5065360;28;20202;-79
2021/12/09 13:16:39;;;;;;;3.60;1.40;;;4.00;99.90;;;;;;5065635;28;20197;-79
2021/12/09 13:19:11;;;;;;;3.00;1.70;;;4.00;99.90;;;;;;5066542;28;20265;-80
2021/12/09 13:21:45;;;;;;;5.60;3.20;;;4.10;99.90;;;;;;5067424;28;20293;-79
2021/12/09 13:24:45;;;;;;;9.43;3.63;;;3.90;99.90;;;;;;5065713;28;20258;-79
2021/12/09 13:27:46;;;;;;;5.10;2.00;;;3.90;99.90;;;;;;5065677;28;20278;-80
2021/12/09 13:33:46;;;;;;;4.97;2.53;;;3.80;99.90;;;;;;5005233;28;20302;-80
2021/12/09 13:39:19;;;;;;;5.87;1.80;;;3.80;99.90;;;;;;5003301;28;20207;-80
2021/12/09 13:55:42;;;;;;;5.13;1.80;;;3.90;99.90;;;;;;5003578;28;20207;-79
2021/12/09 13:58:12;;;;;;;2.63;1.20;;;3.90;99.90;;;;;;5002424;28;20300;-79
2021/12/09 14:00:43;;;;;;;3.13;1.20;;;3.80;99.90;;;;;;5005016;28;20211;-79